createdAt,value
2017-07-10T00:00:05.439Z,38.8
2017-07-10T00:01:08.598Z,38.9
2017-07-10T00:02:05.188Z,38.9
2017-07-10T00:03:08.665Z,38.9
2017-07-10T00:04:08.655Z,38.9
2017-07-10T00:05:05.377Z,39
2017-07-10T00:06:09.121Z,39
2017-07-10T00:07:05.600Z,39
2017-07-10T00:08:05.599Z,39.1
2017-07-10T00:09:05.620Z,39.1
2017-07-10T00:10:07.514Z,39.1
2017-07-10T00:11:05.671Z,39.2
2017-07-10T00:12:08.047Z,39.2
2017-07-10T00:13:05.861Z,39.2
2017-07-10T00:14:05.787Z,39.3
2017-07-10T00:15:09.322Z,39.3
2017-07-10T00:16:09.303Z,39.3
2017-07-10T00:17:08.065Z,39.3
2017-07-10T00:18:06.402Z,39.4
2017-07-10T00:19:09.467Z,39.4
2017-07-10T00:20:09.616Z,39.4
2017-07-10T00:21:06.307Z,39.4
2017-07-10T00:22:06.340Z,39.4
2017-07-10T00:23:06.305Z,39.5
2017-07-10T00:24:10.044Z,39.5
2017-07-10T00:25:09.784Z,39.5
2017-07-10T00:26:06.519Z,39.5
2017-07-10T00:27:06.635Z,39.5
2017-07-10T00:28:06.565Z,39.6
2017-07-10T00:29:06.604Z,39.6
2017-07-10T00:30:07.068Z,39.6
2017-07-10T00:31:06.741Z,39.6
2017-07-10T00:32:06.829Z,39.7
2017-07-10T00:33:08.809Z,39.7
2017-07-10T00:34:08.761Z,39.7
2017-07-10T00:35:08.912Z,39.7
2017-07-10T00:36:10.547Z,39.7
2017-07-10T00:37:10.333Z,39.7
2017-07-10T00:38:10.438Z,39.7
2017-07-10T00:39:09.063Z,39.7
2017-07-10T00:40:09.224Z,39.7
2017-07-10T00:41:09.268Z,39.7
2017-07-10T00:42:07.711Z,39.8
2017-07-10T00:43:10.693Z,39.8
2017-07-10T00:44:07.390Z,39.8
2017-07-10T00:45:07.596Z,39.8
2017-07-10T00:46:10.942Z,39.8
2017-07-10T00:47:10.993Z,39.8
2017-07-10T00:48:11.278Z,39.8
2017-07-10T00:49:09.591Z,39.8
2017-07-10T00:50:09.626Z,39.8
2017-07-10T00:51:07.681Z,39.8
2017-07-10T00:52:08.470Z,39.8
2017-07-10T00:53:11.091Z,39.8
2017-07-10T00:54:08.208Z,39.8
2017-07-10T00:55:11.195Z,39.9
2017-07-10T00:56:07.917Z,39.9
2017-07-10T00:57:07.915Z,39.9
2017-07-10T00:58:08.053Z,39.9
2017-07-10T00:59:08.084Z,39.9
2017-07-10T01:00:08.306Z,39.9
2017-07-10T01:01:10.082Z,39.9
2017-07-10T01:02:08.165Z,39.9
2017-07-10T01:03:11.558Z,39.9
2017-07-10T01:04:10.252Z,39.9
2017-07-10T01:05:08.692Z,39.9
2017-07-10T01:06:08.421Z,39.8
2017-07-10T01:07:08.624Z,39.9
2017-07-10T01:08:12.007Z,39.9
2017-07-10T01:09:11.943Z,39.9
2017-07-10T01:10:08.784Z,39.9
2017-07-10T01:11:09.112Z,39.9
2017-07-10T01:12:12.323Z,40
2017-07-10T01:13:08.963Z,40
2017-07-10T01:14:12.503Z,40
2017-07-10T01:15:10.959Z,40
2017-07-10T01:16:09.896Z,40
2017-07-10T01:17:11.297Z,40.1
2017-07-10T01:18:12.575Z,40.1
2017-07-10T01:19:11.199Z,40.1
2017-07-10T01:20:11.293Z,40.1
2017-07-10T01:21:12.839Z,40.1
2017-07-10T01:22:09.371Z,40.1
2017-07-10T01:23:09.678Z,40.1
2017-07-10T01:24:12.916Z,40.1
2017-07-10T01:25:12.937Z,40.1
2017-07-10T01:26:12.899Z,40.1
2017-07-10T01:27:12.908Z,40.1
2017-07-10T01:28:09.831Z,40.2
2017-07-10T01:29:10.239Z,40.2
2017-07-10T01:30:13.269Z,40.2
2017-07-10T01:31:11.900Z,40.2
2017-07-10T01:32:12.029Z,40.2
2017-07-10T01:33:10.108Z,40.2
2017-07-10T01:34:10.164Z,40.2
2017-07-10T01:35:12.330Z,40.2
2017-07-10T01:36:12.140Z,40.2
2017-07-10T01:37:10.244Z,40.2
2017-07-10T01:38:12.218Z,40.2
2017-07-10T01:39:12.266Z,40.2
2017-07-10T01:40:10.320Z,40.2
2017-07-10T01:41:14.107Z,40.2
2017-07-10T01:42:10.538Z,40.2
2017-07-10T01:43:12.491Z,40.2
2017-07-10T01:44:13.952Z,40.2
2017-07-10T01:45:12.513Z,40.2
2017-07-10T01:46:10.553Z,40.2
2017-07-10T01:47:12.883Z,40.3
2017-07-10T01:48:14.138Z,40.3
2017-07-10T01:49:10.800Z,40.3
2017-07-10T01:50:10.964Z,40.3
2017-07-10T01:51:10.921Z,40.3
2017-07-10T01:52:14.444Z,40.3
2017-07-10T01:53:14.796Z,40.3
2017-07-10T01:54:12.019Z,40.3
2017-07-10T01:55:11.512Z,40.3
2017-07-10T01:56:13.028Z,40.3
2017-07-10T01:57:12.265Z,40.3
2017-07-10T01:58:14.363Z,40.3
2017-07-10T01:59:15.636Z,40.3
2017-07-10T02:00:12.841Z,40.4
2017-07-10T02:01:12.571Z,40.4
2017-07-10T02:02:14.295Z,40.4
2017-07-10T02:03:11.747Z,40.4
2017-07-10T02:04:13.594Z,40.5
2017-07-10T02:05:11.972Z,40.5
2017-07-10T02:06:11.772Z,40.5
2017-07-10T02:07:11.878Z,40.6
2017-07-10T02:08:15.250Z,40.6
2017-07-10T02:09:15.215Z,40.6
2017-07-10T02:10:11.891Z,40.7
2017-07-10T02:11:12.393Z,40.7
2017-07-10T02:12:13.936Z,40.7
2017-07-10T02:13:15.539Z,40.7
2017-07-10T02:14:14.170Z,40.7
2017-07-10T02:15:15.623Z,40.8
2017-07-10T02:16:12.320Z,40.8
2017-07-10T02:17:15.937Z,40.8
2017-07-10T02:18:12.328Z,40.8
2017-07-10T02:19:15.755Z,40.8
2017-07-10T02:20:12.512Z,40.9
2017-07-10T02:21:15.956Z,40.9
2017-07-10T02:22:12.658Z,40.9
2017-07-10T02:23:14.963Z,40.9
2017-07-10T02:24:14.658Z,40.9
2017-07-10T02:25:14.672Z,40.9
2017-07-10T02:26:12.759Z,41
2017-07-10T02:27:16.301Z,41
2017-07-10T02:28:14.836Z,41
2017-07-10T02:29:13.355Z,41
2017-07-10T02:30:16.543Z,41
2017-07-10T02:31:13.230Z,41
2017-07-10T02:32:15.159Z,41
2017-07-10T02:33:15.301Z,41.1
2017-07-10T02:34:16.752Z,41.1
2017-07-10T02:35:13.636Z,41.1
2017-07-10T02:36:18.389Z,41.1
2017-07-10T02:37:13.651Z,41.1
2017-07-10T02:38:13.622Z,41.1
2017-07-10T02:39:13.699Z,41.1
2017-07-10T02:40:15.561Z,41.1
2017-07-10T02:41:15.919Z,41.1
2017-07-10T02:42:13.815Z,41.1
2017-07-10T02:43:14.006Z,41.1
2017-07-10T02:44:17.402Z,41.1
2017-07-10T02:45:17.421Z,41.1
2017-07-10T02:46:14.029Z,41.1
2017-07-10T02:47:16.289Z,41.1
2017-07-10T02:48:17.477Z,41.1
2017-07-10T02:49:17.527Z,41.1
2017-07-10T02:50:16.229Z,41.1
2017-07-10T02:51:14.378Z,41.1
2017-07-10T02:52:17.623Z,41.1
2017-07-10T02:53:16.617Z,41.1
2017-07-10T02:54:14.411Z,41.1
2017-07-10T02:55:16.409Z,41.1
2017-07-10T02:56:17.813Z,41.1
2017-07-10T02:57:14.549Z,41.1
2017-07-10T02:58:17.992Z,41.1
2017-07-10T02:59:15.031Z,41.1
2017-07-10T03:00:14.741Z,41.1
2017-07-10T03:01:14.912Z,41.1
2017-07-10T03:02:16.828Z,41.1
2017-07-10T03:03:18.287Z,41.2
2017-07-10T03:04:16.827Z,41.2
2017-07-10T03:05:15.159Z,41.2
2017-07-10T03:06:16.869Z,41.2
2017-07-10T03:07:15.097Z,41.2
2017-07-10T03:08:18.496Z,41.2
2017-07-10T03:09:18.556Z,41.2
2017-07-10T03:10:15.322Z,41.2
2017-07-10T03:11:18.908Z,41.2
2017-07-10T03:12:15.413Z,41.2
2017-07-10T03:13:15.385Z,41.2
2017-07-10T03:14:15.505Z,41.2
2017-07-10T03:15:17.428Z,41.2
2017-07-10T03:16:15.520Z,41.2
2017-07-10T03:17:19.197Z,41.2
2017-07-10T03:18:15.621Z,41.2
2017-07-10T03:19:15.614Z,41.2
2017-07-10T03:20:18.975Z,41.2
2017-07-10T03:21:19.002Z,41.2
2017-07-10T03:22:15.863Z,41.2
2017-07-10T03:23:18.059Z,41.3
2017-07-10T03:24:15.948Z,41.3
2017-07-10T03:25:15.948Z,41.3
2017-07-10T03:26:15.949Z,41.3
2017-07-10T03:27:19.377Z,41.3
2017-07-10T03:28:19.349Z,41.3
2017-07-10T03:29:19.651Z,41.3
2017-07-10T03:30:17.992Z,41.4
2017-07-10T03:31:16.101Z,41.4
2017-07-10T03:32:19.510Z,41.4
2017-07-10T03:33:18.230Z,41.4
2017-07-10T03:34:16.299Z,41.5
2017-07-10T03:35:16.779Z,41.5
2017-07-10T03:36:18.356Z,41.5
2017-07-10T03:37:16.559Z,41.6
2017-07-10T03:38:16.586Z,41.6
2017-07-10T03:39:18.646Z,41.7
2017-07-10T03:40:16.770Z,41.7
2017-07-10T03:41:16.967Z,41.8
2017-07-10T03:42:16.753Z,41.9
2017-07-10T03:43:18.729Z,42
2017-07-10T03:44:16.899Z,42
2017-07-10T03:45:17.069Z,42.1
2017-07-10T03:46:17.114Z,42.1
2017-07-10T03:47:17.345Z,42.1
2017-07-10T03:48:17.198Z,42.1
2017-07-10T03:49:19.141Z,42.2
2017-07-10T03:50:17.262Z,42.2
2017-07-10T03:51:20.572Z,42.2
2017-07-10T03:52:17.296Z,42.3
2017-07-10T03:53:21.075Z,42.3
2017-07-10T03:54:17.555Z,42.3
2017-07-10T03:55:17.513Z,42.3
2017-07-10T03:56:17.628Z,42.4
2017-07-10T03:57:21.075Z,42.4
2017-07-10T03:58:17.768Z,42.5
2017-07-10T03:59:18.095Z,42.5
2017-07-10T04:00:17.705Z,42.6
2017-07-10T04:01:19.793Z,42.7
2017-07-10T04:02:17.855Z,42.8
2017-07-10T04:03:17.913Z,42.8
2017-07-10T04:04:21.419Z,42.9
2017-07-10T04:05:21.689Z,42.9
2017-07-10T04:06:18.248Z,43
2017-07-10T04:07:20.123Z,43.1
2017-07-10T04:08:18.300Z,43.2
2017-07-10T04:09:18.282Z,43.3
2017-07-10T04:10:18.312Z,43.3
2017-07-10T04:11:18.751Z,43.3
2017-07-10T04:12:18.331Z,43.4
2017-07-10T04:13:18.462Z,43.4
2017-07-10T04:19:30.053Z,43.7
2017-07-10T04:20:31.301Z,43.8
2017-07-10T04:21:27.900Z,43.9
2017-07-10T04:22:28.027Z,43.9
2017-07-10T04:23:27.961Z,44
2017-07-10T04:24:28.051Z,44
2017-07-10T04:25:28.366Z,44
2017-07-10T04:26:28.122Z,44.1
2017-07-10T04:27:31.521Z,44.1
2017-07-10T04:28:28.258Z,44.1
2017-07-10T04:29:31.692Z,44.1
2017-07-10T04:30:30.350Z,44.1
2017-07-10T04:31:30.569Z,44.2
2017-07-10T04:32:31.742Z,44.2
2017-07-10T04:33:31.826Z,44.3
2017-07-10T04:34:31.941Z,44.2
2017-07-10T04:35:28.610Z,44.2
2017-07-10T04:36:28.794Z,44.2
2017-07-10T04:37:29.031Z,44.2
2017-07-10T04:38:32.150Z,44.2
2017-07-10T04:39:29.009Z,44.2
2017-07-10T04:40:28.966Z,44.1
2017-07-10T04:41:29.064Z,44.3
2017-07-10T04:42:32.563Z,44.5
2017-07-10T04:43:32.973Z,44.7
2017-07-10T04:44:29.216Z,44.8
2017-07-10T04:45:31.372Z,44.8
2017-07-10T04:46:32.036Z,44.8
2017-07-10T04:47:32.745Z,44.9
2017-07-10T04:48:32.712Z,45
2017-07-10T04:49:29.768Z,45
2017-07-10T04:50:32.815Z,45
2017-07-10T04:51:32.886Z,45.1
2017-07-10T04:52:29.738Z,45.2
2017-07-10T04:53:31.725Z,45.2
2017-07-10T04:54:29.859Z,45.2
2017-07-10T04:55:32.131Z,45.3
2017-07-10T04:56:31.881Z,45.3
2017-07-10T04:57:31.937Z,45.3
2017-07-10T04:58:32.000Z,45.4
2017-07-10T04:59:30.085Z,45.4
2017-07-10T05:00:30.073Z,45.4
2017-07-10T05:01:30.378Z,45.4
2017-07-10T05:02:33.461Z,45.4
2017-07-10T05:03:30.290Z,45.5
2017-07-10T05:04:30.225Z,45.5
2017-07-10T05:05:30.415Z,45.5
2017-07-10T05:06:32.269Z,45.6
2017-07-10T05:07:34.104Z,45.7
2017-07-10T05:08:33.950Z,45.7
2017-07-10T05:09:30.624Z,45.8
2017-07-10T05:10:30.715Z,45.9
2017-07-10T05:11:30.779Z,45.9
2017-07-10T05:12:34.183Z,45.9
2017-07-10T05:13:33.066Z,45.8
2017-07-10T05:14:32.751Z,45.8
2017-07-10T05:15:32.905Z,45.7
2017-07-10T05:16:31.107Z,45.7
2017-07-10T05:17:34.391Z,45.7
2017-07-10T05:18:33.661Z,45.7
2017-07-10T05:19:34.661Z,45.7
2017-07-10T05:20:33.072Z,45.7
2017-07-10T05:21:33.175Z,45.8
2017-07-10T05:22:31.281Z,45.8
2017-07-10T05:23:34.599Z,45.9
2017-07-10T05:24:34.640Z,46
2017-07-10T05:25:33.657Z,46.1
2017-07-10T05:26:33.391Z,46.1
2017-07-10T05:27:34.938Z,46.2
2017-07-10T05:28:31.644Z,46.3
2017-07-10T05:29:31.959Z,46.5
2017-07-10T05:30:33.358Z,46.6
2017-07-10T05:31:35.018Z,46.8
2017-07-10T05:32:36.244Z,46.9
2017-07-10T05:33:34.631Z,46.9
2017-07-10T05:34:32.638Z,46.9
2017-07-10T05:35:33.799Z,46.9
2017-07-10T05:36:31.949Z,47
2017-07-10T05:37:32.233Z,47
2017-07-10T05:38:32.008Z,47.1
2017-07-10T05:39:32.065Z,47.1
2017-07-10T05:40:34.329Z,47.1
2017-07-10T05:41:34.245Z,47.1
2017-07-10T05:42:32.303Z,47.1
2017-07-10T05:43:36.090Z,47.2
2017-07-10T05:44:32.554Z,47.2
2017-07-10T05:45:34.415Z,47.3
2017-07-10T05:46:32.447Z,47.3
2017-07-10T05:47:35.721Z,47.2
2017-07-10T05:48:33.437Z,47.1
2017-07-10T05:49:35.037Z,47
2017-07-10T05:50:38.905Z,46.8
2017-07-10T05:51:32.608Z,46.8
2017-07-10T05:52:32.667Z,46.6
2017-07-10T05:53:34.679Z,46.6
2017-07-10T05:54:32.743Z,46.6
2017-07-10T05:55:33.116Z,46.5
2017-07-10T05:56:36.238Z,46.5
2017-07-10T05:57:32.856Z,46.5
2017-07-10T05:58:37.002Z,46.6
2017-07-10T05:59:35.105Z,46.7
2017-07-10T06:00:33.985Z,46.8
2017-07-10T06:01:37.649Z,46.9
2017-07-10T06:02:36.488Z,47
2017-07-10T06:03:37.664Z,47.1
2017-07-10T06:04:35.204Z,47.2
2017-07-10T06:05:37.349Z,47.3
2017-07-10T06:06:33.871Z,47.2
2017-07-10T06:07:37.617Z,47.2
2017-07-10T06:08:36.943Z,47.1
2017-07-10T06:09:33.735Z,47
2017-07-10T06:10:34.243Z,47
2017-07-10T06:12:05.702Z,47
2017-07-10T06:12:47.574Z,47
2017-07-10T06:14:58.263Z,47.1
2017-07-10T06:15:44.722Z,47.3
2017-07-10T06:16:46.838Z,47.4
2017-07-10T06:17:47.190Z,47.4
2017-07-10T06:18:48.142Z,47.4
2017-07-10T06:19:52.066Z,47.5
2017-07-10T06:20:51.033Z,47.5
2017-07-10T06:21:47.808Z,47.5
2017-07-10T06:22:48.377Z,47.6
2017-07-10T06:23:48.798Z,47.6
2017-07-10T06:24:48.670Z,47.6
2017-07-10T06:25:49.797Z,47.7
2017-07-10T06:26:52.185Z,47.7
2017-07-10T06:27:49.031Z,47.7
2017-07-10T06:28:45.639Z,47.7
2017-07-10T06:29:45.721Z,47.7
2017-07-10T06:30:55.023Z,47.7
2017-07-10T06:31:47.581Z,47.6
2017-07-10T06:32:49.095Z,47.6
2017-07-10T06:33:47.756Z,47.6
2017-07-10T06:34:51.657Z,47.6
2017-07-10T06:35:47.209Z,47.6
2017-07-10T06:36:48.578Z,47.6
2017-07-10T06:37:46.919Z,47.6
2017-07-10T06:38:50.169Z,47.5
2017-07-10T06:39:50.696Z,47.5
2017-07-10T06:40:50.167Z,47.5
2017-07-10T06:41:55.368Z,47.6
2017-07-10T06:42:51.674Z,47.6
2017-07-10T06:43:51.312Z,47.6
2017-07-10T06:44:48.448Z,47.7
2017-07-10T06:45:48.502Z,47.7
2017-07-10T06:46:46.621Z,47.8
2017-07-10T06:47:48.039Z,47.8
2017-07-10T06:48:51.204Z,47.8
2017-07-10T06:49:48.782Z,47.8
2017-07-10T06:50:48.800Z,47.8
2017-07-10T06:51:51.744Z,47.8
2017-07-10T06:52:47.900Z,47.6
2017-07-10T06:53:47.833Z,47.6
2017-07-10T06:54:52.069Z,47.7
2017-07-10T06:55:47.312Z,47.7
2017-07-10T06:56:51.298Z,47.8
2017-07-10T06:57:49.438Z,47.8
2017-07-10T06:58:50.122Z,47.9
2017-07-10T06:59:47.606Z,48
2017-07-10T07:00:51.195Z,48
2017-07-10T07:01:48.380Z,48.1
2017-07-10T07:02:47.675Z,48.3
2017-07-10T07:03:53.145Z,48.3
2017-07-10T07:04:48.788Z,48.4
2017-07-10T07:05:55.099Z,48.5
2017-07-10T07:06:48.550Z,48.5
2017-07-10T07:07:47.873Z,48.6
2017-07-10T07:08:50.487Z,48.6
2017-07-10T07:09:48.023Z,48.6
2017-07-10T07:10:48.102Z,48.6
2017-07-10T07:11:51.652Z,48.7
2017-07-10T07:12:49.595Z,48.7
2017-07-10T07:13:51.541Z,48.8
2017-07-10T07:14:51.850Z,48.8
2017-07-10T07:15:48.359Z,48.7
2017-07-10T07:16:48.310Z,48.6
2017-07-10T07:17:49.034Z,48.6
2017-07-10T07:18:56.977Z,48.6
2017-07-10T07:19:50.944Z,48.6
2017-07-10T07:20:51.037Z,48.6
2017-07-10T07:21:49.900Z,48.6
2017-07-10T07:22:49.189Z,48.6
2017-07-10T07:23:51.355Z,48.6
2017-07-10T07:24:48.804Z,48.5
2017-07-10T07:25:50.657Z,48.5
2017-07-10T07:26:50.776Z,48.5
2017-07-10T07:27:50.736Z,48.5
2017-07-10T07:28:52.897Z,48.5
2017-07-10T07:29:50.957Z,48.4
2017-07-10T07:30:52.500Z,48.4
2017-07-10T07:31:49.706Z,48.3
2017-07-10T07:32:51.166Z,48.2
2017-07-10T07:33:52.618Z,48.1
2017-07-10T07:34:49.353Z,48
2017-07-10T07:35:52.681Z,47.9
2017-07-10T07:36:53.361Z,47.9
2017-07-10T07:37:49.360Z,47.8
2017-07-10T07:38:52.749Z,47.8
2017-07-10T07:39:51.501Z,47.7
2017-07-10T07:40:50.453Z,47.6
2017-07-10T07:41:50.379Z,47.6
2017-07-10T07:42:51.031Z,47.6
2017-07-10T07:43:55.323Z,47.6
2017-07-10T07:44:53.233Z,47.5
2017-07-10T07:45:52.346Z,47.6
2017-07-10T07:46:53.843Z,47.6
2017-07-10T07:47:51.936Z,47.7
2017-07-10T07:48:52.501Z,47.7
2017-07-10T07:49:50.035Z,47.8
2017-07-10T07:50:52.069Z,47.8
2017-07-10T07:51:50.865Z,47.8
2017-07-10T07:52:52.273Z,47.8
2017-07-10T07:53:53.710Z,47.8
2017-07-10T07:54:50.290Z,47.8
2017-07-10T07:55:51.511Z,47.8
2017-07-10T07:56:50.339Z,47.7
2017-07-10T07:57:50.400Z,47.8
2017-07-10T07:58:52.799Z,47.8
2017-07-10T07:59:52.343Z,47.9
2017-07-10T08:00:52.903Z,47.9
2017-07-10T08:01:53.821Z,47.9
2017-07-10T08:02:52.561Z,48
2017-07-10T08:03:52.512Z,47.9
2017-07-10T08:04:50.695Z,47.9
2017-07-10T08:05:51.322Z,47.9
2017-07-10T08:06:52.082Z,47.9
2017-07-10T08:07:53.479Z,47.9
2017-07-10T08:08:51.616Z,47.9
2017-07-10T08:09:51.718Z,47.9
2017-07-10T08:10:54.341Z,48
2017-07-10T08:11:51.808Z,48
2017-07-10T08:12:56.409Z,48
2017-07-10T08:13:52.026Z,48
2017-07-10T08:14:55.519Z,48.1
2017-07-10T08:15:56.597Z,48.1
2017-07-10T08:16:52.671Z,48.1
2017-07-10T08:17:54.624Z,48.2
2017-07-10T08:18:54.664Z,48.2
2017-07-10T08:19:54.023Z,48.2
2017-07-10T08:20:53.566Z,48.1
2017-07-10T08:21:51.584Z,48.1
2017-07-10T08:22:52.214Z,48.1
2017-07-10T08:23:51.848Z,48.1
2017-07-10T08:24:51.739Z,48.2
2017-07-10T08:25:53.818Z,48.2
2017-07-10T08:26:52.536Z,48.2
2017-07-10T08:27:53.939Z,48.2
2017-07-10T08:28:55.967Z,48.2
2017-07-10T08:29:52.004Z,48.2
2017-07-10T08:30:54.126Z,48.3
2017-07-10T08:31:54.186Z,48.3
2017-07-10T08:32:54.070Z,48.4
2017-07-10T08:33:53.064Z,48.5
2017-07-10T08:34:53.690Z,48.5
2017-07-10T08:35:54.794Z,48.5
2017-07-10T08:36:54.358Z,48.5
2017-07-10T08:37:57.033Z,48.5
2017-07-10T08:38:53.725Z,48.5
2017-07-10T08:39:52.725Z,48.5
2017-07-10T08:40:56.336Z,48.5
2017-07-10T08:41:55.810Z,48.5
2017-07-10T08:42:56.081Z,48.4
2017-07-10T08:43:56.930Z,48.4
2017-07-10T08:44:53.635Z,48.4
2017-07-10T08:45:52.955Z,48.4
2017-07-10T08:46:52.930Z,48.3
2017-07-10T08:47:53.089Z,48.3
2017-07-10T08:48:53.743Z,48.2
2017-07-10T08:49:53.713Z,48.2
2017-07-10T08:50:54.855Z,48
2017-07-10T08:51:55.721Z,47.9
2017-07-10T08:52:56.485Z,47.9
2017-07-10T08:53:55.315Z,47.9
2017-07-10T08:54:53.562Z,47.9
2017-07-10T08:55:57.589Z,47.9
2017-07-10T08:56:54.311Z,47.9
2017-07-10T08:57:53.756Z,47.9
2017-07-10T08:58:54.319Z,47.9
2017-07-10T08:59:55.749Z,47.7
2017-07-10T09:00:58.463Z,47.6
2017-07-10T09:01:57.322Z,47.6
2017-07-10T09:02:54.021Z,47.6
2017-07-10T09:03:55.126Z,47.4
2017-07-10T09:04:57.463Z,47.3
2017-07-10T09:05:55.239Z,47.2
2017-07-10T09:06:58.106Z,47
2017-07-10T09:07:56.473Z,46.9
2017-07-10T09:08:55.015Z,46.8
2017-07-10T09:09:56.593Z,46.7
2017-07-10T09:10:59.259Z,46.6
2017-07-10T09:11:59.861Z,46.5
2017-07-10T09:12:54.613Z,46.4
2017-07-10T09:13:56.526Z,46.4
2017-07-10T09:14:57.900Z,46.3
2017-07-10T09:15:55.639Z,46.3
2017-07-10T09:16:54.656Z,46.4
2017-07-10T09:17:54.788Z,46.4
2017-07-10T09:18:54.932Z,46.4
2017-07-10T09:20:02.305Z,46.4
2017-07-10T09:20:59.922Z,46.3
2017-07-10T09:21:55.740Z,46.2
2017-07-10T09:22:56.963Z,46.1
2017-07-10T09:23:55.674Z,46.2
2017-07-10T09:24:55.044Z,46.1
2017-07-10T09:25:56.882Z,46
2017-07-10T09:26:55.014Z,46
2017-07-10T09:27:57.051Z,45.9
2017-07-10T09:28:56.516Z,45.9
2017-07-10T09:29:58.604Z,45.9
2017-07-10T09:30:55.326Z,45.8
2017-07-10T09:31:57.340Z,45.8
2017-07-10T09:32:58.714Z,45.8
2017-07-10T09:33:58.688Z,45.8
2017-07-10T09:34:58.806Z,45.6
2017-07-10T09:35:58.893Z,45.5
2017-07-10T09:36:55.553Z,45.5
2017-07-10T09:37:55.577Z,45.4
2017-07-10T09:38:59.570Z,45.3
2017-07-10T09:39:58.958Z,45.3
2017-07-10T09:40:59.102Z,45.1
2017-07-10T09:41:57.729Z,45.1
2017-07-10T09:42:56.603Z,45
2017-07-10T09:43:57.845Z,45.1
2017-07-10T09:45:01.717Z,45
2017-07-10T09:45:57.923Z,44.9
2017-07-10T09:46:56.599Z,44.8
2017-07-10T09:47:59.518Z,44.7
2017-07-10T09:49:01.873Z,44.6
2017-07-10T09:49:56.198Z,44.5
2017-07-10T09:50:56.292Z,44.3
2017-07-10T09:52:00.444Z,44.2
2017-07-10T09:53:00.246Z,44.1
2017-07-10T09:53:56.490Z,44
2017-07-10T09:54:58.361Z,43.8
2017-07-10T09:55:59.694Z,43.6
2017-07-10T09:56:59.216Z,43.5
2017-07-10T09:57:56.613Z,43.4
2017-07-10T09:58:56.651Z,43.3
2017-07-10T10:00:01.600Z,43.3
2017-07-10T10:00:58.099Z,43.1
2017-07-10T10:02:02.842Z,43
2017-07-10T10:03:02.970Z,43
2017-07-10T10:04:01.794Z,43
2017-07-10T10:05:03.639Z,43
2017-07-10T10:06:02.587Z,43
2017-07-10T10:07:00.700Z,42.9
2017-07-10T10:07:57.949Z,42.8
2017-07-10T10:09:03.488Z,42.6
2017-07-10T10:09:59.295Z,42.4
2017-07-10T10:11:01.620Z,42.2
2017-07-10T10:12:04.302Z,42
2017-07-10T10:13:03.872Z,41.9
2017-07-10T10:14:01.709Z,41.8
2017-07-10T10:15:03.177Z,41.8
2017-07-10T10:16:04.432Z,41.7
2017-07-10T10:17:07.699Z,41.6
2017-07-10T10:18:03.920Z,41.5
2017-07-10T10:19:05.099Z,41.3
2017-07-10T10:20:04.618Z,41.2
2017-07-10T10:21:03.004Z,41
2017-07-10T10:22:01.918Z,41
2017-07-10T10:23:00.016Z,40.9
2017-07-10T10:24:02.816Z,40.8
2017-07-10T10:25:04.098Z,40.6
2017-07-10T10:26:00.009Z,40.5
2017-07-10T10:26:58.898Z,40.3
2017-07-10T10:28:01.802Z,40.1
2017-07-10T10:29:04.601Z,39.9
2017-07-10T10:30:00.391Z,39.9
2017-07-10T10:31:04.311Z,40.1
2017-07-10T10:32:01.815Z,40.3
2017-07-10T10:33:03.117Z,40.4
2017-07-10T10:34:01.090Z,40.5
2017-07-10T10:35:01.711Z,40.7
2017-07-10T10:36:00.039Z,40.9
2017-07-10T10:37:03.626Z,41
2017-07-10T10:38:08.039Z,41.1
2017-07-10T10:39:00.142Z,41.1
2017-07-10T10:40:12.860Z,41.2
2017-07-10T10:40:59.478Z,41.3
2017-07-10T10:42:00.177Z,41.4
2017-07-10T10:43:00.171Z,41.5
2017-07-10T10:44:03.418Z,41.5
2017-07-10T10:45:02.723Z,41.5
2017-07-10T10:46:05.525Z,41.6
2017-07-10T10:47:02.583Z,41.5
2017-07-10T10:47:59.331Z,41.6
2017-07-10T10:49:02.024Z,41.6
2017-07-10T10:50:03.626Z,41.6
2017-07-10T10:51:07.660Z,41.6
2017-07-10T10:52:00.282Z,41.6
2017-07-10T10:53:02.956Z,41.6
2017-07-10T10:54:05.546Z,41.5
2017-07-10T10:55:05.556Z,41.5
2017-07-10T10:56:06.316Z,41.5
2017-07-10T10:57:02.349Z,41.6
2017-07-10T10:58:01.754Z,41.6
2017-07-10T10:59:00.405Z,41.6
2017-07-10T11:00:00.355Z,41.5
2017-07-10T11:01:04.071Z,41.6
2017-07-10T11:02:00.669Z,41.6
2017-07-10T11:03:02.841Z,41.6
2017-07-10T11:04:01.905Z,41.6
2017-07-10T11:05:01.825Z,41.6
2017-07-10T11:06:01.179Z,41.6
2017-07-10T11:07:06.830Z,41.6
2017-07-10T11:08:03.046Z,41.5
2017-07-10T11:09:00.141Z,41.5
2017-07-10T11:10:10.443Z,41.4
2017-07-10T11:11:00.719Z,41.4
2017-07-10T11:12:01.087Z,41.4
2017-07-10T11:13:02.776Z,41.4
2017-07-10T11:14:03.756Z,41.4
2017-07-10T11:15:01.156Z,41.3
2017-07-10T11:16:03.860Z,41.3
2017-07-10T11:17:05.499Z,41.4
2017-07-10T11:18:07.529Z,41.5
2017-07-10T11:19:08.636Z,41.6
2017-07-10T11:20:02.101Z,41.7
2017-07-10T11:21:04.862Z,41.6
2017-07-10T11:22:02.829Z,41.5
2017-07-10T11:23:02.983Z,41.6
2017-07-10T11:24:05.072Z,41.6
2017-07-10T11:25:03.325Z,41.6
2017-07-10T11:26:03.254Z,41.6
2017-07-10T11:27:02.954Z,41.7
2017-07-10T11:28:03.766Z,41.6
2017-07-10T11:29:02.221Z,41.5
2017-07-10T11:30:05.693Z,41.4
2017-07-10T11:31:02.689Z,41.4
2017-07-10T11:32:04.690Z,41.4
2017-07-10T11:33:05.053Z,41.3
2017-07-10T11:34:04.858Z,41.3
2017-07-10T11:35:09.675Z,41.3
2017-07-10T11:36:04.197Z,41.3
2017-07-10T11:37:06.473Z,41.3
2017-07-10T11:38:06.422Z,41.2
2017-07-10T11:39:06.214Z,41.2
2017-07-10T11:40:07.438Z,41.2
2017-07-10T11:41:11.370Z,41.2
2017-07-10T11:42:09.077Z,41.2
2017-07-10T11:43:10.320Z,41.2
2017-07-10T11:45:08.531Z,41.2
2017-07-10T11:46:14.105Z,41.2
2017-07-10T11:47:10.295Z,41.1
2017-07-10T11:48:13.025Z,41
2017-07-10T11:49:11.210Z,40.8
2017-07-10T11:50:07.108Z,40.7
2017-07-10T11:51:08.455Z,40.6
2017-07-10T11:52:08.902Z,40.4
2017-07-10T11:53:11.094Z,40.3
2017-07-10T11:54:14.822Z,40.3
2017-07-10T11:55:13.140Z,40.3
2017-07-10T11:56:16.838Z,40.2
2017-07-10T11:57:14.088Z,40.1
2017-07-10T11:58:10.392Z,40
2017-07-10T11:59:10.439Z,39.9
2017-07-10T12:00:10.916Z,39.9
2017-07-10T12:01:14.052Z,39.9
2017-07-10T12:02:07.933Z,39.9
2017-07-10T12:03:09.636Z,39.8
2017-07-10T12:04:17.813Z,39.8
2017-07-10T12:05:12.437Z,39.7
2017-07-10T12:06:11.545Z,39.6
2017-07-10T12:07:11.402Z,39.6
2017-07-10T12:08:10.459Z,39.5
2017-07-10T12:09:11.895Z,39.5
2017-07-10T12:10:11.048Z,39.6
2017-07-10T12:11:07.376Z,39.5
2017-07-10T12:12:11.980Z,39.5
2017-07-10T12:13:06.929Z,39.5
2017-07-10T12:14:04.193Z,39.5
2017-07-10T12:15:11.226Z,39.4
2017-07-10T12:16:06.047Z,39.4
2017-07-10T12:17:06.488Z,39.3
2017-07-10T12:18:03.952Z,39.2
2017-07-10T12:19:04.809Z,39
2017-07-10T12:20:07.233Z,38.8
2017-07-10T12:21:06.498Z,38.7
2017-07-10T12:22:06.329Z,38.6
2017-07-10T12:23:04.485Z,38.5
2017-07-10T12:24:07.078Z,38.4
2017-07-10T12:25:10.622Z,38.2
2017-07-10T12:26:09.721Z,38.1
2017-07-10T12:27:05.844Z,38
2017-07-10T12:28:06.279Z,37.7
2017-07-10T12:29:06.046Z,37.6
2017-07-10T12:30:09.169Z,37.4
2017-07-10T12:31:06.101Z,37.2
2017-07-10T12:32:07.310Z,37.1
2017-07-10T12:33:10.175Z,37
2017-07-10T12:34:06.952Z,36.9
2017-07-10T12:35:08.077Z,36.7
2017-07-10T12:36:07.579Z,36.5
2017-07-10T12:37:06.825Z,36.4
2017-07-10T12:38:08.385Z,36.3
2017-07-10T12:39:09.359Z,36.2
2017-07-10T12:40:09.110Z,36.2
2017-07-10T12:41:07.588Z,36.2
2017-07-10T12:42:07.431Z,36.1
2017-07-10T12:43:07.223Z,36.1
2017-07-10T12:44:05.971Z,36.1
2017-07-10T12:45:11.344Z,36.1
2017-07-10T12:46:11.128Z,36.1
2017-07-10T12:47:09.673Z,36.1
2017-07-10T12:48:08.898Z,36.1
2017-07-10T12:49:09.412Z,36
2017-07-10T12:50:09.672Z,35.9
2017-07-10T12:51:08.112Z,35.9
2017-07-10T12:52:08.240Z,35.8
2017-07-10T12:53:09.902Z,35.8
2017-07-10T12:54:08.161Z,35.8
2017-07-10T12:55:08.232Z,35.8
2017-07-10T12:56:08.372Z,35.8
2017-07-10T12:57:09.142Z,35.7
2017-07-10T12:58:05.931Z,35.7
2017-07-10T12:59:11.120Z,35.8
2017-07-10T13:00:08.475Z,35.8
2017-07-10T13:01:09.006Z,35.7
2017-07-10T13:02:09.992Z,35.6
2017-07-10T13:03:10.001Z,35.6
2017-07-10T13:04:09.294Z,35.6
2017-07-10T13:05:13.247Z,35.6
2017-07-10T13:06:11.099Z,35.6
2017-07-10T13:07:09.551Z,35.5
2017-07-10T13:08:09.694Z,35.4
2017-07-10T13:09:11.073Z,35.4
2017-07-10T13:10:07.301Z,35.4
2017-07-10T13:11:08.646Z,35.3
2017-07-10T13:12:07.082Z,35.3
2017-07-10T13:13:09.234Z,35.2
2017-07-10T13:14:06.690Z,35.2
2017-07-10T13:15:06.837Z,35.1
2017-07-10T13:16:09.933Z,35.1
2017-07-10T13:17:07.832Z,34.9
2017-07-10T13:18:09.375Z,34.8
2017-07-10T13:19:08.832Z,34.8
2017-07-10T13:20:10.284Z,34.8
2017-07-10T13:21:09.054Z,34.8
2017-07-10T13:22:09.016Z,34.9
2017-07-10T13:23:07.395Z,34.9
2017-07-10T13:24:07.242Z,34.9
2017-07-10T13:25:09.259Z,35
2017-07-10T13:26:08.716Z,35
2017-07-10T13:27:08.283Z,35.1
2017-07-10T13:28:08.544Z,35.2
2017-07-10T13:29:10.956Z,35.2
2017-07-10T13:30:07.462Z,35.2